Time;durP1;ratioP1;P1;durP2;ratioP2;P2;SDS_P1;SDS_P2;PMS_P1;PMS_P2;Temp;Humidity;BMP_temperature;BMP_pressure;BME280_temperature;BME280_humidity;BME280_pressure;Samples;Min_cycle;Max_cycle;Signal;HPM_P1;HPM_P2
2023/02/24 00:00:45;;;;;;;30.13;19.80;;;;;;;13.48;66.53;98171.97;5115300;28;20120;-47
2023/02/24 00:03:12;;;;;;;28.58;20.25;;;;;;;13.54;66.93;98173.69;5097196;28;20028;-47
2023/02/24 00:05:41;;;;;;;29.48;20.20;;;;;;;13.59;66.79;98175.59;5115496;28;20023;-47
2023/02/24 00:08:08;;;;;;;35.97;19.77;;;;;;;13.60;66.69;98174.56;5115374;28;20048;-47
2023/02/24 00:10:36;;;;;;;31.25;20.15;;;;;;;13.60;66.58;98158.75;5097304;28;20385;-48
2023/02/24 00:13:03;;;;;;;30.75;20.80;;;;;;;13.65;66.59;98174.69;5097169;28;20028;-47
2023/02/24 00:15:30;;;;;;;27.30;20.10;;;;;;;13.63;66.01;98155.66;5115289;28;20020;-47
2023/02/24 00:17:57;;;;;;;32.15;19.67;;;;;;;13.58;66.12;98164.25;5115276;28;20015;-47
2023/02/24 00:20:46;;;;;;;29.42;20.90;;;;;;;13.58;66.24;98160.81;5115184;28;20026;-48
2023/02/24 00:23:22;;;;;;;33.67;20.80;;;;;;;13.56;66.01;98162.88;5115104;28;20028;-47
2023/02/24 00:26:10;;;;;;;30.05;19.73;;;;;;;13.68;65.73;98157.56;5114936;28;20484;-47
2023/02/24 00:28:45;;;;;;;25.17;19.30;;;;;;;13.71;65.66;98152.66;5096464;28;20032;-47
2023/02/24 00:31:22;;;;;;;27.85;20.58;;;;;;;13.69;65.81;98153.91;5115000;28;20031;-47
2023/02/24 00:34:15;;;;;;;31.02;20.63;;;;;;;13.63;65.26;98150.38;5098751;28;20082;-48
2023/02/24 00:36:48;;;;;;;26.23;21.08;;;;;;;13.51;65.33;98157.50;5114893;28;20042;-48
2023/02/24 00:39:27;;;;;;;29.90;21.48;;;;;;;13.39;66.00;98160.97;5114857;28;20023;-47
2023/02/24 00:42:18;;;;;;;27.27;22.25;;;;;;;13.42;65.93;98156.25;5114242;28;20050;-48
2023/02/24 00:44:47;;;;;;;35.95;21.42;;;;;;;13.44;65.57;98155.00;5114764;28;20717;-47
2023/02/24 00:47:23;;;;;;;30.63;21.48;;;;;;;13.49;65.61;98152.47;5114476;28;20080;-47
2023/02/24 00:49:49;;;;;;;40.22;21.20;;;;;;;13.55;66.00;98146.25;5114702;28;20020;-47
2023/02/24 00:52:27;;;;;;;28.92;19.90;;;;;;;13.71;65.11;98136.03;5114846;28;20028;-48
2023/02/24 00:58:06;;;;;;;31.77;20.02;;;;;;;13.65;64.93;98132.47;5114748;28;20039;-48
2023/02/24 01:00:42;;;;;;;31.30;18.88;;;;;;;13.61;65.42;98127.91;5112666;28;20481;-47
2023/02/24 01:03:08;;;;;;;27.05;21.35;;;;;;;13.30;65.12;98136.00;5114224;28;20027;-47
2023/02/24 01:05:36;;;;;;;37.00;21.88;;;;;;;12.98;66.21;98132.91;5114375;28;20132;-47
2023/02/24 01:08:03;;;;;;;34.58;21.88;;;;;;;12.80;67.21;98131.19;5096022;28;20084;-47
2023/02/24 01:10:33;;;;;;;35.95;22.92;;;;;;;12.62;68.01;98128.66;5114276;28;20020;-47
2023/02/24 01:13:00;;;;;;;29.90;21.55;;;;;;;12.46;68.56;98130.91;5114203;28;20092;-47
2023/02/24 01:15:28;;;;;;;37.88;21.73;;;;;;;12.39;68.81;98131.00;5114170;28;20073;-47
2023/02/24 01:17:55;;;;;;;32.45;22.98;;;;;;;12.41;68.90;98128.13;5114064;28;20427;-47
2023/02/24 01:20:21;;;;;;;31.15;22.52;;;;;;;12.46;68.81;98133.53;5114036;28;20012;-47
2023/02/24 01:22:52;;;;;;;35.05;22.98;;;;;;;12.47;68.72;98129.84;5095610;28;20034;-47
2023/02/24 01:25:20;;;;;;;28.73;20.95;;;;;;;12.39;68.95;98122.28;5114209;28;20401;-47
2023/02/24 01:27:47;;;;;;;33.75;21.67;;;;;;;12.54;68.82;98124.50;5113836;28;20089;-47
2023/02/24 01:30:14;;;;;;;36.47;21.52;;;;;;;12.62;68.62;98126.00;5113853;28;20071;-47
2023/02/24 01:32:43;;;;;;;32.58;19.80;;;;;;;12.68;68.28;98120.63;5113727;28;20027;-47
2023/02/24 01:35:10;;;;;;;33.50;21.27;;;;;;;12.78;67.87;98120.06;5113739;28;20102;-47
2023/02/24 01:37:52;;;;;;;33.78;20.88;;;;;;;12.80;67.87;98112.75;5113949;28;20115;-48
2023/02/24 01:40:29;;;;;;;34.88;20.95;;;;;;;12.97;67.90;98111.00;5112867;28;20015;-48
2023/02/24 01:42:55;;;;;;;39.83;20.25;;;;;;;13.10;67.73;98112.63;5078383;28;20045;-47
2023/02/24 01:45:35;;;;;;;27.33;18.52;;;;;;;13.12;67.34;98107.94;5113592;28;20487;-47
2023/02/24 01:48:23;;;;;;;30.52;18.92;;;;;;;13.36;67.11;98097.34;5112143;28;20039;-46
2023/02/24 01:51:03;;;;;;;25.90;18.60;;;;;;;13.54;66.45;98096.41;5095121;28;20436;-48
2023/02/24 01:53:36;;;;;;;28.48;19.40;;;;;;;13.69;65.82;98101.97;5113415;28;20028;-47
2023/02/24 01:56:12;;;;;;;;;;;;;;;;;;;;;
2023/02/24 01:59:09;;;;;;;26.08;18.73;;;;;;;13.56;65.25;98091.69;5112413;28;20061;-47
2023/02/24 02:02:21;;;;;;;28.15;18.05;;;;;;;13.61;65.21;98089.16;5091107;28;20052;-47
2023/02/24 02:05:15;;;;;;;28.30;18.92;;;;;;;13.73;64.59;98089.13;5092815;28;20047;-47
2023/02/24 02:07:57;;;;;;;36.92;19.05;;;;;;;13.69;64.11;98090.63;5086609;28;20024;-48
2023/02/24 02:10:37;;;;;;;30.27;18.55;;;;;;;13.64;64.38;98088.69;5092899;28;20482;-48
2023/02/24 02:13:25;;;;;;;32.40;19.30;;;;;;;13.58;63.73;98076.44;5092471;28;20029;-47
2023/02/24 02:16:40;;;;;;;34.28;20.38;;;;;;;13.39;64.40;98079.25;5087752;28;20386;-47
2023/02/24 02:19:43;;;;;;;26.20;18.50;;;;;;;13.24;65.29;98078.94;5092628;28;20024;-48
2023/02/24 02:22:48;;;;;;;30.08;19.38;;;;;;;13.34;64.58;98075.69;5090293;28;20254;-47
2023/02/24 02:25:54;;;;;;;28.05;16.67;;;;;;;13.42;64.62;98079.81;5092442;28;20030;-48
2023/02/24 02:29:15;;;;;;;42.53;19.67;;;;;;;13.41;64.20;98075.59;5092305;28;20059;-47
2023/02/24 02:32:37;;;;;;;26.95;17.52;;;;;;;13.48;64.48;98073.59;5086146;28;20063;-47
2023/02/24 02:35:39;;;;;;;27.00;17.67;;;;;;;13.53;64.11;98065.81;5092655;28;20028;-48
2023/02/24 02:38:56;;;;;;;27.85;18.38;;;;;;;13.61;63.77;98067.28;5089507;28;20073;-47
2023/02/24 02:41:43;;;;;;;;;;;;;;;13.38;63.81;98058.38;5092461;28;20039;-47
2023/02/24 02:44:31;;;;;;;33.50;18.75;;;;;;;13.18;65.21;98062.22;5089874;28;19947;-48
2023/02/24 02:47:52;;;;;;;27.60;18.45;;;;;;;13.32;64.25;98057.50;5092135;28;20028;-47
2023/02/24 02:51:06;;;;;;;27.60;17.55;;;;;;;13.42;64.13;98066.63;5090420;28;20528;-47
2023/02/24 02:53:53;;;;;;;34.03;18.00;;;;;;;13.44;64.25;98067.19;5092241;28;20028;-47
2023/02/24 02:57:02;;;;;;;26.27;18.13;;;;;;;13.52;63.50;98069.47;5091832;28;20036;-47
2023/02/24 03:00:14;;;;;;;25.30;16.77;;;;;;;13.67;63.70;98067.13;5091951;28;20012;-47
2023/02/24 03:03:20;;;;;;;31.92;22.63;;;;;;;13.79;63.47;98057.34;5086778;28;20036;-48
2023/02/24 03:06:09;;;;;;;30.55;18.38;;;;;;;13.88;62.93;98049.03;5073745;28;20509;-47
2023/02/24 03:09:01;;;;;;;32.33;17.52;;;;;;;14.02;62.69;98046.91;5091710;28;20063;-47
2023/02/24 03:11:35;;;;;;;21.88;16.63;;;;;;;14.07;61.81;98039.88;5091715;28;20024;-47
2023/02/24 03:14:25;;;;;;;30.42;16.05;;;;;;;13.85;61.38;98038.97;5091720;28;20119;-48
2023/02/24 03:17:39;;;;;;;35.58;19.48;;;;;;;13.48;62.83;98034.88;5073566;28;20020;-48
2023/02/24 03:20:51;;;;;;;33.20;18.85;;;;;;;13.15;64.00;98025.78;5091705;28;20121;-47
2023/02/24 03:23:39;;;;;;;24.92;16.95;;;;;;;13.16;64.97;98034.50;5091450;28;20401;-48
2023/02/24 03:26:44;;;;;;;28.73;18.00;;;;;;;13.27;64.41;98030.22;5073519;28;20040;-48
2023/02/24 03:29:38;;;;;;;49.42;20.55;;;;;;;13.27;64.69;98022.31;5073813;28;20024;-48
2023/02/24 03:33:15;;;;;;;27.10;18.58;;;;;;;13.14;64.54;98026.03;5090933;28;20471;-48
2023/02/24 03:36:00;;;;;;;26.92;19.60;;;;;;;12.98;65.18;98017.81;5091498;28;20146;-48
2023/02/24 03:38:48;;;;;;;30.98;18.95;;;;;;;12.84;65.58;98023.53;5073304;28;20028;-47
2023/02/24 03:41:19;;;;;;;27.45;18.05;;;;;;;12.56;66.53;98023.22;5091544;28;20137;-47
2023/02/24 03:44:09;;;;;;;24.45;17.38;;;;;;;12.58;66.61;98020.38;5091428;28;20020;-47
2023/02/24 03:46:47;;;;;;;30.23;19.33;;;;;;;12.62;66.08;98025.97;5091369;28;20024;-48
2023/02/24 03:49:37;;;;;;;33.45;18.73;;;;;;;12.61;66.79;98022.53;5091491;28;20083;-47
2023/02/24 03:52:46;;;;;;;36.97;32.75;;;;;;;12.52;66.52;98023.91;5091382;28;20027;-48
2023/02/24 03:55:57;;;;;;;34.60;24.20;;;;;;;12.52;67.04;98029.19;5091418;28;20040;-48
2023/02/24 03:59:11;;;;;;;27.25;17.83;;;;;;;12.75;66.59;98042.31;5091366;28;20066;-48
2023/02/24 04:02:22;;;;;;;30.77;18.75;;;;;;;13.06;66.35;98032.44;5105696;28;20500;-48
2023/02/24 04:05:14;;;;;;;25.65;18.40;;;;;;;13.15;65.66;98032.88;5097801;28;20405;-47
2023/02/24 04:08:22;;;;;;;24.38;17.13;;;;;;;13.16;65.54;98029.22;5097147;28;20442;-48
2023/02/24 04:11:37;;;;;;;31.13;18.65;;;;;;;13.21;64.36;98039.84;5115093;28;20032;-48
2023/02/24 04:14:42;;;;;;;32.35;19.10;;;;;;;13.02;64.71;98041.84;5115346;28;20035;-48
2023/02/24 04:18:17;;;;;;;39.50;28.67;;;;;;;12.77;66.00;98050.00;5115189;28;20020;-47
2023/02/24 04:20:59;;;;;;;46.97;34.58;;;;;;;12.50;66.42;98037.31;5115245;28;20020;-48
2023/02/24 04:24:20;;;;;;;;;;;;;;;;;;;;;
2023/02/24 04:27:10;;;;;;;25.88;20.55;;;;;;;12.02;67.30;98033.00;5114667;28;20035;-47
2023/02/24 04:30:14;;;;;;;30.60;20.20;;;;;;;11.84;67.63;98027.78;5115079;28;20027;-48
2023/02/24 04:32:49;;;;;;;36.45;19.80;;;;;;;11.79;68.34;98024.00;5115002;28;20024;-47
2023/02/24 04:35:31;;;;;;;29.75;19.85;;;;;;;11.72;67.96;98030.38;5096687;28;20034;-47
2023/02/24 04:38:11;;;;;;;29.52;18.40;;;;;;;11.60;68.50;98025.88;5114874;28;20496;-48
2023/02/24 04:40:43;;;;;;;36.17;19.13;;;;;;;11.57;68.45;98028.16;5114713;28;20024;-47
2023/02/24 04:43:25;;;;;;;25.10;18.88;;;;;;;11.48;68.80;98022.41;5096437;28;20027;-47
2023/02/24 04:46:15;;;;;;;30.52;19.15;;;;;;;11.36;69.00;98032.84;5096426;28;20533;-47
2023/02/24 04:48:56;;;;;;;37.53;20.40;;;;;;;11.26;69.33;98026.53;5114709;28;20015;-48
2023/02/24 04:54:43;;;;;;;29.02;18.77;;;;;;;11.33;70.19;98017.56;5114873;28;20068;-48
2023/02/24 04:57:20;;;;;;;30.58;19.60;;;;;;;11.32;70.50;98015.94;5114435;28;20397;-48
2023/02/24 05:02:50;;;;;;;36.35;22.10;;;;;;;11.20;70.48;98007.19;5114710;28;20116;-47
2023/02/24 05:08:18;;;;;;;33.15;22.08;;;;;;;11.17;70.36;98016.31;5114540;28;20036;-48
2023/02/24 05:11:02;;;;;;;54.95;42.05;;;;;;;11.13;70.87;98019.63;5095980;28;20047;-47
2023/02/24 05:13:33;;;;;;;40.17;25.30;;;;;;;11.24;71.18;98028.56;5113556;28;20030;-47
2023/02/24 05:16:07;;;;;;;28.35;19.45;;;;;;;11.37;71.24;98020.53;5113759;28;20019;-47
2023/02/24 05:18:37;;;;;;;63.60;21.00;;;;;;;11.53;70.44;98022.56;5095771;28;20554;-48
2023/02/24 05:21:36;;;;;;;181.60;30.15;;;;;;;11.51;70.17;98035.09;5095780;28;20028;-46
2023/02/24 05:27:02;;;;;;;711.25;73.03;;;;;;;11.70;69.62;98025.34;5114169;28;20035;-48
2023/02/24 05:29:34;;;;;;;236.60;32.53;;;;;;;11.68;69.36;98019.50;5113836;28;20066;-47
2023/02/24 05:32:03;;;;;;;136.23;25.92;;;;;;;11.54;69.17;98013.63;5113895;28;20019;-47
2023/02/24 05:34:32;;;;;;;62.67;22.90;;;;;;;11.27;69.92;98005.31;5113866;28;20046;-47
2023/02/24 05:37:08;;;;;;;52.80;26.17;;;;;;;11.01;70.77;98009.06;5113781;28;20107;-47
2023/02/24 05:39:36;;;;;;;43.90;22.20;;;;;;;10.79;71.63;98013.94;5095211;28;20050;-46
2023/02/24 05:42:05;;;;;;;44.88;22.38;;;;;;;10.68;72.28;98012.00;5095367;28;20019;-47
2023/02/24 05:44:48;;;;;;;35.80;20.83;;;;;;;10.68;72.69;98012.81;5113538;28;20119;-47
2023/02/24 05:47:24;;;;;;;41.95;20.73;;;;;;;10.72;72.46;98010.56;5095376;28;20392;-46
2023/02/24 05:49:59;;;;;;;;;;;;;;;10.70;72.18;98002.91;5113890;28;20546;-46
2023/02/24 05:52:25;;;;;;;35.72;20.60;;;;;;;10.65;72.58;98002.75;5113209;28;20389;-47
2023/02/24 05:55:12;;;;;;;35.53;20.13;;;;;;;10.81;72.67;98008.47;5078218;28;20532;-47
2023/02/24 05:57:58;;;;;;;46.47;20.88;;;;;;;10.91;72.07;98001.69;5112915;28;20108;-47
2023/02/24 06:00:25;;;;;;;47.05;19.30;;;;;;;11.20;72.56;97994.06;5112918;28;20027;-47
2023/02/24 06:02:53;;;;;;;37.20;20.08;;;;;;;11.27;70.80;97989.53;5094936;28;20032;-47
2023/02/24 06:05:26;;;;;;;31.83;21.27;;;;;;;11.00;70.65;97989.06;5113155;28;20028;-47
2023/02/24 06:08:05;;;;;;;36.60;20.10;;;;;;;10.71;71.99;97991.41;5113211;28;20027;-47
2023/02/24 06:10:50;;;;;;;36.20;18.45;;;;;;;10.89;72.33;97997.69;5112087;28;20047;-47
2023/02/24 06:13:17;;;;;;;37.17;20.10;;;;;;;11.05;72.21;97998.91;5112952;28;20030;-47
2023/02/24 06:15:49;;;;;;;27.80;19.67;;;;;;;11.10;71.77;97991.97;5094929;28;20129;-47
2023/02/24 06:18:17;;;;;;;32.42;18.75;;;;;;;11.21;71.76;97993.06;5112911;28;20031;-47
2023/02/24 06:20:49;;;;;;;33.67;18.33;;;;;;;11.37;70.93;97989.81;5094612;28;20165;-47
2023/02/24 06:23:18;;;;;;;34.92;20.75;;;;;;;11.31;70.54;97992.53;5112815;28;20072;-47
2023/02/24 06:25:45;;;;;;;27.92;20.25;;;;;;;11.17;70.67;97997.16;5112520;28;20031;-47
2023/02/24 06:28:24;;;;;;;43.10;22.58;;;;;;;11.02;71.19;97999.34;5094489;28;20050;-48
2023/02/24 06:31:07;;;;;;;37.72;18.58;;;;;;;11.09;70.35;98000.88;5112659;28;20116;-47
2023/02/24 06:33:52;;;;;;;35.65;20.30;;;;;;;11.09;69.77;97989.56;5094417;28;20020;-46
2023/02/24 06:36:30;;;;;;;30.92;18.58;;;;;;;10.95;70.99;97992.34;5093904;28;20051;-47
2023/02/24 06:39:12;;;;;;;35.90;19.60;;;;;;;11.09;70.64;97997.44;5112616;28;20098;-47
2023/02/24 06:41:41;;;;;;;26.52;17.92;;;;;;;11.03;70.58;98000.94;5112427;28;20451;-47
2023/02/24 06:44:08;;;;;;;25.58;18.17;;;;;;;11.09;70.46;98000.88;5112328;28;20068;-46
2023/02/24 06:46:45;;;;;;;28.73;19.38;;;;;;;11.09;70.15;97995.63;5094460;28;20026;-47
2023/02/24 06:49:22;;;;;;;56.00;22.55;;;;;;;11.06;70.55;97990.78;5112518;28;20534;-47
2023/02/24 06:52:00;;;;;;;31.67;20.08;;;;;;;11.11;70.41;97992.78;5112732;28;20028;-47
2023/02/24 06:54:29;;;;;;;35.78;19.48;;;;;;;11.05;70.27;97983.16;5112424;28;20026;-47
2023/02/24 06:57:08;;;;;;;28.52;19.25;;;;;;;10.93;70.87;97977.84;5112347;28;20065;-48
2023/02/24 06:59:35;;;;;;;24.50;17.65;;;;;;;10.94;70.68;97961.84;5109188;28;20039;-46
2023/02/24 07:02:02;;;;;;;26.27;19.23;;;;;;;10.95;70.71;97973.16;5089788;28;20139;-47
2023/02/24 07:04:57;;;;;;;26.65;18.20;;;;;;;11.10;71.44;97970.94;5090901;28;20170;-47
2023/02/24 07:07:24;;;;;;;30.75;17.83;;;;;;;11.31;70.43;97972.31;5090908;28;20020;-46
2023/02/24 07:10:21;;;;;;;57.95;21.38;;;;;;;11.33;69.66;97970.25;5089840;28;20497;-47
2023/02/24 07:13:05;;;;;;;35.53;19.00;;;;;;;11.27;70.15;97965.91;5090878;28;20443;-47
2023/02/24 07:15:48;;;;;;;31.27;19.45;;;;;;;11.24;70.23;97968.97;5075761;28;20028;-47
2023/02/24 07:18:30;;;;;;;34.40;19.08;;;;;;;11.30;69.98;97972.53;5090881;28;20062;-46
2023/02/24 07:21:10;;;;;;;29.88;18.58;;;;;;;11.20;70.44;97978.31;5090792;28;20085;-47
2023/02/24 07:23:55;;;;;;;32.55;20.20;;;;;;;11.18;69.92;97977.72;5090792;28;20032;-47
2023/02/24 07:26:50;;;;;;;25.02;17.73;;;;;;;11.19;69.83;97976.72;5090659;28;20036;-47
2023/02/24 07:29:34;;;;;;;45.75;21.70;;;;;;;11.42;69.42;97973.38;5090478;28;20119;-47
2023/02/24 07:32:04;;;;;;;36.50;19.33;;;;;;;11.50;69.29;97975.69;5090829;28;20397;-47
2023/02/24 07:34:32;;;;;;;37.13;18.45;;;;;;;11.67;69.45;97973.25;5090644;28;20032;-47
2023/02/24 07:37:05;;;;;;;30.00;19.15;;;;;;;12.09;67.82;97975.03;5090830;28;20020;-47
2023/02/24 07:39:35;;;;;;;34.78;17.67;;;;;;;12.37;67.38;97977.81;5094195;28;20040;-47
2023/02/24 07:42:04;;;;;;;32.17;17.48;;;;;;;13.09;66.61;97970.59;5094166;28;20447;-47
2023/02/24 07:44:31;;;;;;;25.67;17.70;;;;;;;13.73;63.08;97965.97;5094133;28;20078;-47
2023/02/24 07:46:59;;;;;;;23.15;16.17;;;;;;;13.79;62.46;97965.03;5094045;28;20035;-47
2023/02/24 07:49:28;;;;;;;37.58;18.20;;;;;;;14.04;61.96;97963.81;5085719;28;20074;-47
2023/02/24 07:51:56;;;;;;;28.05;17.08;;;;;;;14.21;60.86;97971.75;5094040;28;20501;-47
2023/02/24 07:54:33;;;;;;;28.85;17.83;;;;;;;13.92;60.78;97971.84;5094035;28;20509;-47
2023/02/24 07:57:00;;;;;;;25.00;18.95;;;;;;;13.62;61.20;97982.66;5094088;28;20028;-47
2023/02/24 07:59:31;;;;;;;25.83;17.75;;;;;;;13.25;61.98;97985.66;5085739;28;20088;-47
2023/02/24 08:02:03;;;;;;;33.90;16.95;;;;;;;12.80;63.09;97983.72;4965975;28;3565484;-47
2023/02/24 08:04:31;;;;;;;31.08;17.85;;;;;;;12.73;64.42;97993.56;5073509;28;20047;-47
2023/02/24 08:07:01;;;;;;;27.15;16.63;;;;;;;12.75;64.25;97980.97;5092828;28;20489;-47
2023/02/24 08:12:16;;;;;;;32.13;16.70;;;;;;;13.33;62.59;97985.31;5095100;28;20054;-47
2023/02/24 08:14:49;;;;;;;23.75;16.27;;;;;;;13.35;62.24;97982.44;5095280;28;20401;-47
2023/02/24 08:17:19;;;;;;;35.88;17.80;;;;;;;13.35;65.77;97991.13;5094945;28;20073;-47
2023/02/24 08:19:48;;;;;;;34.58;19.45;;;;;;;13.35;66.98;97995.63;5094941;28;20031;-46
2023/02/24 08:22:26;;;;;;;31.92;18.38;;;;;;;13.44;67.45;97978.41;5095034;28;20393;-47
2023/02/24 08:24:55;;;;;;;38.75;19.52;;;;;;;13.41;68.56;97972.81;5094870;28;20379;-47
2023/02/24 08:27:29;;;;;;;37.67;21.15;;;;;;;13.52;71.30;97951.66;5094783;28;20020;-46
2023/02/24 08:29:58;;;;;;;35.50;19.50;;;;;;;13.47;70.85;97948.13;5094638;28;20106;-47
2023/02/24 08:32:43;;;;;;;30.60;18.00;;;;;;;13.18;71.66;97948.13;5094561;28;20035;-47
2023/02/24 08:35:16;;;;;;;23.23;17.73;;;;;;;13.11;72.78;97942.19;5094664;28;20087;-47
2023/02/24 08:37:49;;;;;;;24.67;18.27;;;;;;;13.13;72.98;97948.00;5094659;28;20107;-47
2023/02/24 08:40:54;;;;;;;32.70;20.85;;;;;;;13.10;73.47;97949.28;5094426;28;20036;-47
2023/02/24 08:43:29;;;;;;;26.17;19.25;;;;;;;12.87;73.25;97955.41;5090809;28;20038;-47
2023/02/24 08:46:12;;;;;;;34.00;20.70;;;;;;;12.66;72.82;97953.41;5073523;28;20470;-47
2023/02/24 08:48:48;;;;;;;41.33;22.67;;;;;;;12.52;73.75;97945.75;5094239;28;20028;-47
2023/02/24 08:51:27;;;;;;;28.75;20.08;;;;;;;12.65;73.64;97941.28;5076269;28;20107;-47
2023/02/24 08:53:59;;;;;;;25.52;20.20;;;;;;;12.88;73.33;97941.22;5094374;28;20036;-47
2023/02/24 08:56:33;;;;;;;28.05;20.20;;;;;;;13.12;72.57;97930.59;5094174;28;20026;-47
2023/02/24 08:59:05;;;;;;;27.45;20.60;;;;;;;13.23;70.89;97927.13;5094418;28;20032;-47
2023/02/24 09:01:36;;;;;;;30.23;20.42;;;;;;;13.27;71.41;97930.88;5099387;28;20112;-47
2023/02/24 09:04:11;;;;;;;32.03;21.75;;;;;;;13.49;70.87;97935.50;5114186;28;20059;-46
2023/02/24 09:06:46;;;;;;;43.88;21.50;;;;;;;13.89;71.39;97927.47;5096115;28;20527;-47
2023/02/24 09:09:25;;;;;;;;;;;;;;;14.60;73.64;97920.81;5114776;28;20028;-47
2023/02/24 09:11:57;;;;;;;31.60;22.73;;;;;;;16.52;69.88;97913.25;5114262;28;19912;-47
2023/02/24 09:14:36;;;;;;;35.15;21.73;;;;;;;18.67;64.89;97904.63;5114434;28;20404;-45
2023/02/24 09:17:09;;;;;;;38.58;23.75;;;;;;;20.34;59.40;97900.25;5114086;28;20059;-45
2023/02/24 09:25:48;;;;;;;26.30;17.52;;;;;;;24.50;46.26;97869.88;5114056;28;20027;-45
2023/02/24 09:28:31;;;;;;;31.95;18.30;;;;;;;25.41;43.63;97866.69;5095703;28;20496;-47
2023/02/24 09:31:17;;;;;;;30.42;22.33;;;;;;;25.98;39.90;97860.25;5112972;28;20043;-46
2023/02/24 09:33:49;;;;;;;31.63;16.63;;;;;;;26.31;37.56;97849.66;5113845;28;20102;-46
2023/02/24 09:36:43;;;;;;;23.42;17.27;;;;;;;26.99;35.24;97854.19;5113669;28;20466;-46
2023/02/24 09:42:45;;;;;;;28.65;18.95;;;;;;;27.55;33.76;97846.59;5113660;28;20484;-46
2023/02/24 09:45:38;;;;;;;28.67;17.13;;;;;;;26.61;34.71;97847.78;5113320;28;20028;-46
2023/02/24 09:48:42;;;;;;;50.88;29.70;;;;;;;27.56;34.03;97847.38;5113562;28;20488;-46
2023/02/24 09:51:28;;;;;;;27.67;18.85;;;;;;;28.22;32.51;97846.47;5095024;28;20023;-46
2023/02/24 09:54:15;;;;;;;54.78;24.30;;;;;;;28.79;30.73;97836.66;5113683;28;20032;-46
2023/02/24 09:57:24;;;;;;;28.30;18.77;;;;;;;29.52;30.05;97837.50;5113296;28;20126;-46
2023/02/24 10:03:41;;;;;;;39.35;27.65;;;;;;;30.09;29.01;97819.25;5112624;28;20050;-46
2023/02/24 10:06:34;;;;;;;32.30;19.60;;;;;;;30.43;29.13;97820.44;5094935;28;20039;-46
2023/02/24 10:09:33;;;;;;;20.25;17.13;;;;;;;30.60;28.46;97821.97;5112975;28;20035;-46
2023/02/24 10:12:23;;;;;;;27.50;17.20;;;;;;;30.92;27.71;97819.19;5112771;28;20127;-46
2023/02/24 10:19:13;;;;;;;28.75;16.70;;;;;;;31.04;26.11;97811.69;5113362;28;20127;-46
2023/02/24 10:22:07;;;;;;;29.52;17.80;;;;;;;30.50;27.57;97809.75;5094680;28;20024;-46
2023/02/24 10:24:48;;;;;;;33.83;17.73;;;;;;;30.70;27.29;97805.16;5112811;28;20561;-46
2023/02/24 10:27:31;;;;;;;23.50;19.27;;;;;;;30.81;26.65;97802.69;5112886;28;20040;-46
2023/02/24 10:33:44;;;;;;;31.33;21.67;;;;;;;30.50;27.03;97798.16;5112995;28;20397;-46
2023/02/24 10:36:36;;;;;;;28.58;21.23;;;;;;;30.41;27.14;97796.44;5112511;28;20405;-46
2023/02/24 10:39:25;;;;;;;1999.90;999.90;;;;;;;29.88;28.07;97801.34;5112911;28;20507;-46
2023/02/24 10:42:16;;;;;;;1999.90;999.90;;;;;;;29.48;29.37;97796.88;5112493;28;20043;-46
2023/02/24 10:45:10;;;;;;;1999.90;999.90;;;;;;;29.62;28.80;97796.44;5112385;28;20035;-46
2023/02/24 10:47:59;;;;;;;1999.90;999.90;;;;;;;28.96;30.15;97785.06;5111437;28;20505;-46
2023/02/24 10:50:42;;;;;;;1999.90;999.90;;;;;;;28.96;30.08;97789.69;5094107;28;20028;-46
2023/02/24 11:09:34;;;;;;;1999.90;999.90;;;;;;;30.17;26.23;97766.88;5112402;28;20631;-47
2023/02/24 11:19:07;;;;;;;1999.90;999.90;;;;;;;29.08;26.85;97751.81;5112511;28;20035;-46
2023/02/24 11:21:34;;;;;;;1999.90;999.90;;;;;;;28.60;27.45;97748.94;5112075;28;20032;-46
2023/02/24 11:24:05;;;;;;;1999.90;999.90;;;;;;;28.51;28.00;97752.91;5111944;28;20020;-46
2023/02/24 11:26:45;;;;;;;1999.90;999.90;;;;;;;29.24;27.38;97738.34;5093796;28;20125;-46
2023/02/24 11:29:32;;;;;;;1999.90;999.90;;;;;;;30.14;25.87;97730.44;5093761;28;20023;-46
2023/02/24 11:32:15;;;;;;;1999.90;999.90;;;;;;;30.55;25.10;97722.06;5111915;28;20034;-46
2023/02/24 11:35:00;;;;;;;1897.25;999.90;;;;;;;30.37;25.26;97724.41;5111944;28;20028;-46
2023/02/24 11:37:59;;;;;;;1999.90;999.90;;;;;;;30.26;25.23;97724.94;5111926;28;20059;-47
2023/02/24 11:40:47;;;;;;;1367.90;935.10;;;;;;;30.00;25.35;97709.28;5097002;28;20543;-46
2023/02/24 11:43:23;;;;;;;647.95;565.92;;;;;;;29.83;25.20;97710.44;5111790;28;20063;-46
2023/02/24 11:46:30;;;;;;;1089.80;802.92;;;;;;;30.23;25.01;97705.91;5111904;28;20114;-45
2023/02/24 11:49:26;;;;;;;628.17;561.70;;;;;;;31.03;23.73;97690.09;5093603;28;20040;-46
2023/02/24 11:52:32;;;;;;;310.27;278.00;;;;;;;31.43;20.83;97696.94;5093500;28;20032;-47
2023/02/24 11:55:26;;;;;;;198.50;177.88;;;;;;;31.24;20.74;97698.59;5111694;28;20024;-46
2023/02/24 11:57:58;;;;;;;144.77;129.50;;;;;;;29.97;21.74;97685.63;5093054;28;20389;-46
2023/02/24 12:00:30;;;;;;;107.60;88.65;;;;;;;28.18;21.98;97687.16;5093475;28;20032;-46
2023/02/24 12:03:32;;;;;;;90.93;57.20;;;;;;;26.43;24.02;97688.31;5111580;28;20046;-45
2023/02/24 12:06:19;;;;;;;180.25;108.03;;;;;;;25.09;26.90;97681.56;5111702;28;20024;-46
2023/02/24 12:09:25;;;;;;;31.02;13.93;;;;;;;25.26;26.39;97667.31;5108631;28;20032;-47
2023/02/24 12:12:26;;;;;;;45.20;15.93;;;;;;;26.43;25.43;97658.72;5111904;28;20404;-46
2023/02/24 12:14:59;;;;;;;25.23;12.30;;;;;;;26.92;24.64;97660.81;5093112;28;20043;-46
2023/02/24 12:17:29;;;;;;;27.13;10.02;;;;;;;27.16;23.79;97654.69;5111639;28;20031;-46
2023/02/24 12:20:04;;;;;;;26.60;12.60;;;;;;;27.02;24.79;97654.22;5111617;28;20080;-46
2023/02/24 12:22:51;;;;;;;36.78;14.73;;;;;;;26.68;24.82;97654.28;5111587;28;20059;-46
2023/02/24 12:25:47;;;;;;;26.45;8.43;;;;;;;26.55;24.25;97644.53;5115277;28;20026;-46
2023/02/24 12:28:34;;;;;;;38.53;15.77;;;;;;;26.42;25.39;97632.97;5115110;28;20028;-46
2023/02/24 12:31:30;;;;;;;19.80;6.30;;;;;;;26.55;25.00;97635.69;5115210;28;20110;-46
2023/02/24 12:34:22;;;;;;;33.88;9.05;;;;;;;26.63;25.49;97630.25;5115047;28;20040;-46
2023/02/24 12:37:29;;;;;;;23.50;7.35;;;;;;;26.97;24.33;97625.63;5115096;28;20020;-46
2023/02/24 12:40:21;;;;;;;20.65;6.43;;;;;;;26.66;24.27;97618.03;5078449;28;20123;-46
2023/02/24 12:43:45;;;;;;;22.23;5.38;;;;;;;25.44;25.56;97617.00;5114774;28;20026;-46
2023/02/24 12:46:52;;;;;;;29.42;6.35;;;;;;;26.10;25.92;97619.13;5114814;28;20028;-46
2023/02/24 12:49:58;;;;;;;21.10;6.30;;;;;;;25.88;25.76;97603.31;5114689;28;20458;-45
2023/02/24 12:53:00;;;;;;;27.48;6.55;;;;;;;24.38;27.47;97606.84;5114755;28;20102;-46
2023/02/24 12:56:15;;;;;;;20.13;6.13;;;;;;;23.50;28.66;97603.31;5011997;28;20037;-45
2023/02/24 12:58:47;;;;;;;20.38;5.85;;;;;;;23.05;28.92;97605.34;4953730;29;20537;-45
2023/02/24 13:01:51;;;;;;;26.25;6.80;;;;;;;22.67;29.21;97603.06;4953427;29;20568;-46
2023/02/24 13:04:43;;;;;;;19.80;6.15;;;;;;;22.43;29.87;97596.16;4953556;29;20051;-45
2023/02/24 13:07:29;;;;;;;58.42;42.30;;;;;;;22.38;30.56;97584.81;4953612;29;20039;-45
2023/02/24 13:10:28;;;;;;;87.13;75.47;;;;;;;22.06;30.61;97586.59;4953600;29;20045;-45
2023/02/24 13:13:17;;;;;;;66.38;51.55;;;;;;;21.60;31.72;97595.59;4953455;29;20039;-45
2023/02/24 13:15:55;;;;;;;43.17;19.98;;;;;;;21.33;32.27;97589.97;4937224;29;20039;-45
2023/02/24 13:18:29;;;;;;;578.03;517.60;;;;;;;21.15;31.90;97594.31;4937320;29;20039;-45
2023/02/24 13:21:04;;;;;;;354.13;321.83;;;;;;;21.03;32.24;97587.91;4937196;29;20043;-45
2023/02/24 13:23:33;;;;;;;121.43;99.82;;;;;;;20.79;32.58;97588.84;4953140;29;20039;-45
2023/02/24 13:26:00;;;;;;;36.55;20.58;;;;;;;20.63;32.89;97592.88;4953237;29;20116;-45
2023/02/24 13:28:34;;;;;;;99.10;54.30;;;;;;;20.51;34.02;97586.09;4940874;28;20039;-45
2023/02/24 13:31:13;;;;;;;28.63;12.30;;;;;;;20.65;33.75;97593.38;5009526;28;20550;-45
2023/02/24 13:33:43;;;;;;;25.08;8.27;;;;;;;20.63;33.35;97600.88;5035930;28;20510;-45